Time;durP1;ratioP1;P1;durP2;ratioP2;P2;SDS_P1;SDS_P2;PMS_P1;PMS_P2;Temp;Humidity;BMP_temperature;BMP_pressure;BME280_temperature;BME280_humidity;BME280_pressure;Samples;Min_cycle;Max_cycle;Signal;HPM_P1;HPM_P2
2022/03/08 10:43:17;;;;;;;53.63;27.50;;;;;;;9.41;91.92;98763.81;6200911;23;19927;-80
2022/03/08 10:45:50;;;;;;;50.80;27.40;;;;;;;9.55;91.29;98744.56;6165546;23;20044;-79
2022/03/08 10:48:18;;;;;;;48.30;26.40;;;;;;;9.52;91.98;98765.09;6165298;23;20028;-81
2022/03/08 10:50:45;;;;;;;47.80;26.45;;;;;;;9.39;91.02;98724.75;6190426;23;20023;-80
2022/03/08 10:53:12;;;;;;;54.05;26.88;;;;;;;9.55;91.92;98749.78;6166491;23;20047;-80
2022/03/08 10:55:50;;;;;;;50.10;25.92;;;;;;;9.66;89.17;98731.91;6166151;23;20040;-79
2022/03/08 10:58:17;;;;;;;45.42;25.52;;;;;;;9.83;90.20;98746.28;6190780;23;20015;-79
2022/03/08 11:00:46;;;;;;;43.17;25.38;;;;;;;9.97;88.61;98746.31;6189664;23;20008;-79
2022/03/08 11:03:20;;;;;;;48.15;26.45;;;;;;;9.62;91.73;98726.25;6216285;23;20090;-80
2022/03/08 11:05:54;;;;;;;46.55;25.48;;;;;;;9.71;89.13;98726.88;6189088;23;20023;-80
2022/03/08 11:08:21;;;;;;;46.97;25.90;;;;;;;9.14;90.96;98727.03;6164145;23;20023;-80
2022/03/08 11:10:47;;;;;;;45.22;25.90;;;;;;;9.21;92.70;98712.16;6188317;23;20009;-80
2022/03/08 11:13:16;;;;;;;48.78;24.73;;;;;;;9.21;91.78;98722.63;6188135;23;20004;-80
2022/03/08 11:15:43;;;;;;;50.58;27.27;;;;;;;9.14;89.77;98711.31;6164289;23;20027;-79
2022/03/08 11:18:11;;;;;;;43.90;26.17;;;;;;;9.29;88.68;98719.84;6164156;23;20438;-79
2022/03/08 11:20:40;;;;;;;47.25;25.95;;;;;;;9.40;91.24;98715.88;6188688;23;20044;-81
2022/03/08 11:23:07;;;;;;;47.70;26.90;;;;;;;9.57;88.85;98711.09;6188814;23;20016;-79
2022/03/08 11:25:35;;;;;;;47.97;25.58;;;;;;;9.77;91.51;98712.97;6164268;23;20023;-80
2022/03/08 11:28:02;;;;;;;43.60;24.90;;;;;;;9.78;88.76;98706.72;6188911;23;20013;-80
2022/03/08 11:30:40;;;;;;;45.45;25.48;;;;;;;9.64;87.47;98711.13;6190508;23;20016;-79
2022/03/08 11:33:43;;;;;;;42.38;24.25;;;;;;;9.45;88.54;98712.69;6166169;23;20012;-80
2022/03/08 11:36:36;;;;;;;44.10;25.95;;;;;;;9.92;85.94;98714.63;6191121;23;20098;-80
2022/03/08 11:39:24;;;;;;;43.70;24.40;;;;;;;10.13;89.25;98697.94;6190851;23;20435;-80
2022/03/08 11:41:54;;;;;;;43.33;24.33;;;;;;;10.03;88.75;98676.53;6190527;23;20024;-80
2022/03/08 11:44:38;;;;;;;51.15;26.27;;;;;;;9.94;86.59;98694.28;6165516;23;20095;-81
2022/03/08 11:47:14;;;;;;;42.03;25.70;;;;;;;10.29;87.15;98697.53;6164745;23;20431;-80
2022/03/08 11:49:45;;;;;;;44.80;26.50;;;;;;;10.40;85.41;98703.22;6190853;23;20008;-79
2022/03/08 11:52:19;;;;;;;46.80;24.45;;;;;;;10.22;85.44;98685.44;6190698;23;20008;-80
2022/03/08 11:54:54;;;;;;;43.70;25.45;;;;;;;10.30;87.43;98693.13;6190578;23;20001;-82
2022/03/08 11:57:47;;;;;;;43.63;25.33;;;;;;;10.27;85.63;98685.66;6165795;23;20095;-79
2022/03/08 12:00:19;;;;;;;47.35;28.38;;;;;;;10.31;82.75;98689.47;6190187;23;20488;-80
2022/03/08 12:02:46;;;;;;;37.83;24.33;;;;;;;10.56;85.20;98681.03;6165773;23;20439;-79
2022/03/08 12:05:37;;;;;;;43.53;26.27;;;;;;;10.37;84.85;98690.50;6169278;23;20016;-80
2022/03/08 12:08:21;;;;;;;42.97;26.23;;;;;;;10.63;85.92;98676.59;6164772;23;20091;-79
2022/03/08 12:10:50;;;;;;;48.92;27.88;;;;;;;10.86;83.08;98657.75;6190430;23;20024;-80
2022/03/08 12:13:16;;;;;;;46.50;27.15;;;;;;;10.92;83.85;98658.75;6189539;23;20028;-79
2022/03/08 12:16:10;;;;;;;40.40;26.23;;;;;;;10.91;85.69;98670.28;6165534;23;20439;-80
2022/03/08 12:18:50;;;;;;;42.53;25.77;;;;;;;10.82;82.07;98658.38;6165663;23;20019;-80
2022/03/08 12:21:22;;;;;;;42.67;26.63;;;;;;;11.32;81.57;98657.00;6216592;23;20016;-80
2022/03/08 12:23:51;;;;;;;36.25;24.42;;;;;;;11.44;83.74;98644.84;6190108;23;20016;-80
2022/03/08 12:26:26;;;;;;;39.35;25.52;;;;;;;11.92;81.95;98634.84;6165148;23;20017;-80
2022/03/08 12:29:23;;;;;;;39.13;27.02;;;;;;;12.39;78.83;98635.31;6164828;23;20027;-80
2022/03/08 12:34:47;;;;;;;42.15;26.75;;;;;;;12.57;78.48;98644.25;6216562;23;20084;-80
2022/03/08 12:37:13;;;;;;;40.17;25.17;;;;;;;12.52;80.74;98639.66;6165678;23;20024;-80
2022/03/08 12:39:58;;;;;;;42.13;26.30;;;;;;;12.48;78.66;98627.97;6191042;23;20059;-80
2022/03/08 12:42:39;;;;;;;43.30;27.52;;;;;;;12.22;78.41;98629.00;6165072;23;20099;-80
2022/03/08 12:45:06;;;;;;;44.88;25.67;;;;;;;12.20;79.10;98626.56;6165579;23;20016;-79
2022/03/08 12:47:35;;;;;;;39.15;26.52;;;;;;;11.86;79.94;98618.91;6216777;23;20499;-80
2022/03/08 12:50:08;;;;;;;43.72;25.85;;;;;;;12.04;77.78;98614.75;6190659;23;20021;-80
2022/03/08 12:52:44;;;;;;;43.35;26.48;;;;;;;12.01;78.57;98612.56;6165993;23;20017;-81
2022/03/08 12:55:14;;;;;;;40.40;27.50;;;;;;;11.97;77.68;98592.91;6190492;23;20434;-80
2022/03/08 12:57:51;;;;;;;38.90;26.20;;;;;;;11.66;79.30;98597.19;6189982;23;20140;-81
2022/03/08 13:00:50;;;;;;;42.85;26.88;;;;;;;11.86;80.01;98589.16;6164702;23;20013;-81
2022/03/08 13:03:19;;;;;;;41.20;26.77;;;;;;;11.62;77.97;98604.69;6210297;23;20093;-81
2022/03/08 13:05:47;;;;;;;40.75;26.17;;;;;;;11.64;80.25;98604.50;6188967;23;20431;-80
2022/03/08 13:08:16;;;;;;;43.50;27.83;;;;;;;11.68;79.07;98595.94;6216279;23;20434;-82
2022/03/08 13:11:08;;;;;;;42.88;26.92;;;;;;;11.89;82.15;98601.09;6164644;23;20042;-80
2022/03/08 13:13:38;;;;;;;41.55;26.08;;;;;;;12.08;80.72;98591.44;6174174;23;20023;-81
2022/03/08 13:16:05;;;;;;;39.55;26.00;;;;;;;11.81;80.07;98586.38;6164522;23;20020;-81
2022/03/08 13:18:36;;;;;;;39.60;26.40;;;;;;;11.97;79.47;98593.72;6189363;23;20075;-81
2022/03/08 13:21:06;;;;;;;38.85;25.58;;;;;;;11.74;80.07;98586.41;6189404;23;20039;-80
2022/03/08 13:23:38;;;;;;;41.10;27.48;;;;;;;11.92;78.47;98598.84;6164147;23;20442;-81
2022/03/08 13:26:06;;;;;;;43.70;26.65;;;;;;;11.84;78.90;98585.94;6164472;23;20095;-82
2022/03/08 13:28:40;;;;;;;38.95;25.13;;;;;;;12.02;81.43;98602.84;6216011;23;20044;-81
2022/03/08 13:31:08;;;;;;;40.90;26.65;;;;;;;12.04;80.20;98591.09;6188868;23;20012;-80
2022/03/08 13:33:34;;;;;;;39.85;24.48;;;;;;;12.35;81.59;98597.28;6189891;23;20005;-82
2022/03/08 13:36:11;;;;;;;39.45;26.25;;;;;;;12.24;78.04;98593.53;6189079;23;20017;-81
2022/03/08 13:38:41;;;;;;;37.78;25.83;;;;;;;12.95;76.52;98595.84;6164993;23;20469;-81
2022/03/08 13:41:16;;;;;;;39.95;26.42;;;;;;;13.26;77.89;98586.16;6216565;23;20016;-81
2022/03/08 13:43:44;;;;;;;40.92;26.77;;;;;;;13.26;76.87;98585.31;6164659;23;20023;-81
2022/03/08 13:46:22;;;;;;;38.40;26.17;;;;;;;13.36;76.07;98590.88;6216101;23;20096;-82
2022/03/08 13:48:52;;;;;;;40.58;26.17;;;;;;;13.92;75.30;98569.59;6215935;23;20032;-80
2022/03/08 13:51:25;;;;;;;36.70;25.17;;;;;;;13.70;73.98;98585.97;6164141;23;20023;-81
2022/03/08 13:53:53;;;;;;;42.50;27.55;;;;;;;14.08;72.89;98580.53;6164227;23;20036;-80
2022/03/08 13:56:19;;;;;;;39.30;25.85;;;;;;;14.13;73.66;98580.63;6163995;23;20104;-80
2022/03/08 13:58:53;;;;;;;47.88;27.60;;;;;;;13.97;73.75;98579.47;6215772;23;20032;-80
2022/03/08 14:01:25;;;;;;;42.65;27.40;;;;;;;13.85;71.50;98587.34;6215959;23;20016;-80
2022/03/08 14:03:56;;;;;;;40.10;26.60;;;;;;;14.11;71.86;98575.56;6164718;23;20431;-81
2022/03/08 14:06:26;;;;;;;41.35;26.35;;;;;;;14.09;75.21;98590.03;6189965;23;20051;-80
2022/03/08 14:08:52;;;;;;;40.25;25.73;;;;;;;14.52;72.72;98582.78;6189807;23;20012;-81
2022/03/08 14:11:22;;;;;;;36.72;26.52;;;;;;;14.92;73.10;98579.41;6216211;23;20012;-82
2022/03/08 14:14:02;;;;;;;37.70;26.13;;;;;;;14.45;71.52;98582.13;6164636;23;20099;-81
2022/03/08 14:16:46;;;;;;;35.25;25.15;;;;;;;14.17;76.00;98581.78;6189110;23;20012;-81
2022/03/08 14:19:15;;;;;;;37.65;26.75;;;;;;;13.69;72.65;98567.72;6164438;23;20042;-80
2022/03/08 14:21:43;;;;;;;37.25;25.33;;;;;;;13.43;75.62;98577.66;6189067;23;20087;-79
2022/03/08 14:24:20;;;;;;;38.17;26.00;;;;;;;13.22;73.81;98579.72;6188501;23;20111;-80
2022/03/08 14:27:00;;;;;;;39.40;26.27;;;;;;;13.14;74.13;98577.38;6164579;23;20028;-79
2022/03/08 14:29:26;;;;;;;38.55;26.13;;;;;;;12.75;75.73;98563.66;6215179;23;20012;-80
2022/03/08 14:31:52;;;;;;;41.83;27.70;;;;;;;12.91;74.50;98578.09;6189015;23;20011;-80
2022/03/08 14:34:22;;;;;;;35.90;24.40;;;;;;;13.06;77.50;98561.88;6188349;23;20339;-80
2022/03/08 14:36:59;;;;;;;43.28;27.67;;;;;;;13.04;75.13;98571.84;6215768;23;20136;-80
2022/03/08 14:39:40;;;;;;;41.97;27.38;;;;;;;13.01;78.27;98570.44;6188539;23;20067;-80
2022/03/08 14:42:09;;;;;;;38.15;25.52;;;;;;;13.19;77.14;98579.34;6189246;23;20024;-80
2022/03/08 14:44:55;;;;;;;37.97;26.35;;;;;;;13.29;76.30;98569.88;6164353;23;20013;-80
2022/03/08 14:47:27;;;;;;;41.60;26.35;;;;;;;13.13;75.70;98570.50;6189368;23;20100;-80
2022/03/08 14:49:55;;;;;;;40.90;25.45;;;;;;;13.12;75.90;98567.06;6189306;23;20091;-82
2022/03/08 14:52:28;;;;;;;38.63;26.92;;;;;;;13.14;75.10;98566.84;6189317;23;20059;-80
2022/03/08 14:54:56;;;;;;;40.35;26.35;;;;;;;12.98;75.39;98560.34;6218822;23;20004;-82
2022/03/08 14:57:22;;;;;;;34.58;24.23;;;;;;;12.97;77.77;98562.19;6192340;23;20434;-82
2022/03/08 14:59:49;;;;;;;43.55;26.20;;;;;;;13.19;76.89;98563.53;6168636;23;20024;-83
2022/03/08 15:02:18;;;;;;;37.00;25.15;;;;;;;13.15;76.41;98560.53;6166724;23;20013;-85
2022/03/08 15:04:44;;;;;;;37.65;26.63;;;;;;;13.30;76.00;98560.16;6191330;23;20020;-82
2022/03/08 15:07:11;;;;;;;42.00;27.67;;;;;;;13.13;75.07;98554.69;6189965;23;20331;-81
2022/03/08 15:09:38;;;;;;;41.97;27.50;;;;;;;13.12;75.31;98555.72;6217360;23;20036;-81
2022/03/08 15:12:04;;;;;;;40.53;27.05;;;;;;;12.92;76.45;98558.63;6226066;23;20039;-83
2022/03/08 15:14:30;;;;;;;36.70;25.40;;;;;;;13.24;78.57;98567.13;6176972;23;20000;-80
2022/03/08 15:16:57;;;;;;;42.15;25.70;;;;;;;13.18;77.01;98567.19;6177929;23;20332;-81
2022/03/08 15:19:23;;;;;;;42.65;27.77;;;;;;;13.00;76.78;98551.22;6176574;23;20020;-81
2022/03/08 15:21:50;;;;;;;41.17;27.45;;;;;;;12.99;76.25;98569.88;6174745;23;20103;-82
2022/03/08 15:24:16;;;;;;;43.05;26.95;;;;;;;12.63;76.81;98539.91;6180047;23;20024;-81
2022/03/08 15:26:43;;;;;;;36.90;24.30;;;;;;;13.21;77.70;98559.66;6177992;23;20012;-79
2022/03/08 15:29:08;;;;;;;40.50;25.73;;;;;;;13.57;77.66;98536.06;6170628;23;20576;-81
2022/03/08 15:31:34;;;;;;;37.92;26.40;;;;;;;13.49;76.16;98550.38;6193179;23;20012;-80
2022/03/08 15:34:01;;;;;;;41.05;27.17;;;;;;;13.79;76.01;98562.72;6222295;23;20051;-80
2022/03/08 15:36:27;;;;;;;43.00;29.08;;;;;;;13.41;76.72;98545.41;6188233;23;20494;-81
2022/03/08 15:38:54;;;;;;;41.08;27.23;;;;;;;13.23;74.93;98554.97;6188245;23;20036;-79
2022/03/08 15:41:21;;;;;;;41.65;26.88;;;;;;;12.99;76.35;98543.53;6214236;23;20016;-81
2022/03/08 15:43:48;;;;;;;45.08;27.98;;;;;;;12.94;76.57;98541.53;6214210;23;20023;-80
2022/03/08 15:46:15;;;;;;;40.17;27.10;;;;;;;13.10;78.31;98547.22;6187816;23;20439;-81
2022/03/08 15:48:42;;;;;;;41.50;27.60;;;;;;;13.18;77.30;98546.94;6187759;23;20372;-80
2022/03/08 15:51:08;;;;;;;38.92;27.38;;;;;;;13.40;78.69;98534.03;6214525;23;20015;-80
2022/03/08 15:53:33;;;;;;;41.47;27.27;;;;;;;13.61;77.05;98533.78;6188606;23;20402;-80
2022/03/08 15:55:59;;;;;;;43.67;26.13;;;;;;;13.83;77.17;98540.13;6187952;23;20008;-80
2022/03/08 15:58:27;;;;;;;41.50;26.33;;;;;;;13.66;77.34;98529.44;6188318;23;20048;-80
2022/03/08 16:00:55;;;;;;;43.88;26.58;;;;;;;13.92;77.07;98529.22;6188565;23;20043;-80
2022/03/08 16:03:21;;;;;;;40.20;26.60;;;;;;;13.89;75.71;98517.31;6188106;23;20402;-81
2022/03/08 16:05:47;;;;;;;36.05;26.42;;;;;;;13.71;76.91;98519.00;6188424;23;20012;-81
2022/03/08 16:08:13;;;;;;;40.65;26.77;;;;;;;13.82;77.52;98530.59;6188827;23;20557;-81
2022/03/08 16:10:39;;;;;;;37.10;25.27;;;;;;;13.71;77.65;98518.19;6189167;23;20017;-81
2022/03/08 16:13:05;;;;;;;43.90;26.15;;;;;;;13.69;78.55;98510.53;6189115;23;20426;-82
2022/03/08 16:15:31;;;;;;;41.05;26.10;;;;;;;13.75;76.92;98515.91;6190039;23;20013;-82
2022/03/08 16:17:58;;;;;;;40.50;27.20;;;;;;;13.68;76.04;98519.47;6217477;23;20068;-81
2022/03/08 16:20:24;;;;;;;38.80;27.23;;;;;;;13.59;77.06;98525.31;6167758;23;20032;-82
2022/03/08 16:22:50;;;;;;;43.53;29.23;;;;;;;13.21;77.23;98520.13;6192001;23;20032;-82
2022/03/08 16:25:16;;;;;;;41.38;27.35;;;;;;;12.89;79.26;98515.06;6190366;23;20431;-82
2022/03/08 16:27:41;;;;;;;42.17;27.20;;;;;;;12.95;80.15;98531.81;6216491;23;20017;-82
2022/03/08 16:30:09;;;;;;;41.35;26.35;;;;;;;12.88;80.66;98531.91;6189549;23;20020;-81
2022/03/08 16:32:34;;;;;;;39.22;26.17;;;;;;;12.61;79.38;98516.44;6190221;23;20020;-81
2022/03/08 16:35:00;;;;;;;46.33;28.35;;;;;;;12.66;78.81;98539.44;6189948;23;20008;-80
2022/03/08 16:37:26;;;;;;;46.00;27.40;;;;;;;12.40;79.96;98518.50;6165728;23;20074;-82
2022/03/08 16:39:52;;;;;;;44.22;28.02;;;;;;;12.47;81.11;98526.28;6165489;23;20017;-80
2022/03/08 16:42:18;;;;;;;43.17;27.63;;;;;;;12.15;81.03;98513.28;6216884;23;20044;-81
2022/03/08 16:44:44;;;;;;;43.83;26.20;;;;;;;12.22;81.29;98535.06;6165825;23;20021;-81
2022/03/08 16:47:10;;;;;;;42.17;26.35;;;;;;;12.32;82.74;98531.13;6190531;23;20092;-81
2022/03/08 16:49:37;;;;;;;44.95;28.17;;;;;;;12.02;81.14;98524.75;6217176;23;20013;-86
2022/03/08 16:52:04;;;;;;;42.58;27.65;;;;;;;11.86;81.58;98537.38;6217933;23;20012;-79
2022/03/08 16:54:30;;;;;;;41.85;26.60;;;;;;;11.75;84.75;98538.06;6190355;23;20016;-81
2022/03/08 16:56:56;;;;;;;43.97;27.88;;;;;;;11.52;83.51;98518.41;6190882;23;20024;-81
2022/03/08 16:59:22;;;;;;;41.88;27.73;;;;;;;11.60;83.67;98525.25;6216894;23;20457;-81
2022/03/08 17:01:47;;;;;;;43.70;28.85;;;;;;;11.60;81.37;98527.09;6190520;23;20008;-82
2022/03/08 17:04:13;;;;;;;50.65;30.23;;;;;;;11.48;81.75;98526.94;6218306;23;20008;-84
2022/03/08 17:06:39;;;;;;;47.17;28.55;;;;;;;11.77;82.29;98549.16;6189961;23;20387;-80
2022/03/08 17:09:05;;;;;;;52.45;29.48;;;;;;;11.85;81.80;98546.28;6217399;23;20013;-80
2022/03/08 17:11:31;;;;;;;42.78;28.60;;;;;;;11.92;82.39;98555.94;6189164;23;20312;-80
2022/03/08 17:13:57;;;;;;;52.25;28.38;;;;;;;11.81;82.50;98552.19;6189346;23;20009;-87
2022/03/08 17:16:22;;;;;;;47.15;29.00;;;;;;;11.80;82.65;98540.06;6219137;23;20016;-84
2022/03/08 17:18:48;;;;;;;45.85;29.67;;;;;;;11.83;82.59;98547.50;6166001;23;20019;-85
2022/03/08 17:21:15;;;;;;;43.55;28.17;;;;;;;11.96;81.65;98562.38;6189663;23;20012;-84
2022/03/08 17:23:41;;;;;;;46.65;30.88;;;;;;;11.97;80.89;98563.97;6167074;23;20023;-84
2022/03/08 17:26:06;;;;;;;44.67;29.00;;;;;;;11.85;83.79;98569.97;6191537;23;20009;-83
2022/03/08 17:28:32;;;;;;;49.58;29.95;;;;;;;12.04;82.84;98577.13;6194623;23;20386;-84
2022/03/08 17:30:58;;;;;;;51.25;29.42;;;;;;;12.09;81.99;98566.78;6194318;23;20020;-84
2022/03/08 17:33:23;;;;;;;49.88;31.80;;;;;;;11.90;81.27;98569.31;6171300;23;20009;-81
2022/03/08 17:35:51;;;;;;;53.50;30.77;;;;;;;12.09;82.81;98583.34;6191496;23;20506;-83
2022/03/08 17:38:20;;;;;;;53.22;31.33;;;;;;;12.09;82.15;98583.34;6190079;23;20058;-84
2022/03/08 17:40:49;;;;;;;49.40;30.92;;;;;;;12.11;81.66;98591.03;6193063;23;20016;-84
2022/03/08 17:43:15;;;;;;;54.28;31.30;;;;;;;11.91;82.35;98584.09;6165786;23;20021;-84
2022/03/08 17:45:40;;;;;;;49.92;29.92;;;;;;;11.81;82.47;98597.72;6166761;23;20438;-82
2022/03/08 17:48:06;;;;;;;51.00;31.83;;;;;;;11.74;85.11;98589.03;6189920;23;20052;-79
2022/03/08 17:50:31;;;;;;;48.42;30.88;;;;;;;11.68;84.02;98582.00;6190189;23;20019;-79
2022/03/08 17:52:58;;;;;;;51.03;31.45;;;;;;;11.57;86.33;98592.19;6190629;23;20058;-83
2022/03/08 17:55:23;;;;;;;50.20;31.58;;;;;;;11.64;83.73;98599.25;6191387;23;20451;-83
2022/03/08 17:57:49;;;;;;;51.58;32.50;;;;;;;11.62;84.07;98598.66;6194338;23;20009;-84
2022/03/08 18:00:18;;;;;;;49.85;33.50;;;;;;;11.30;84.36;98541.63;6192439;23;20394;-83
2022/03/08 18:02:43;;;;;;;57.55;33.53;;;;;;;11.38;85.23;98593.09;6165887;23;20017;-79
2022/03/08 18:05:09;;;;;;;51.60;31.77;;;;;;;11.23;85.48;98590.75;6189647;23;20008;-79
2022/03/08 18:07:37;;;;;;;54.53;31.27;;;;;;;11.28;85.78;98604.88;6189272;23;20158;-79
2022/03/08 18:10:03;;;;;;;58.17;36.42;;;;;;;11.18;86.37;98615.03;6164687;23;20387;-79
2022/03/08 18:12:32;;;;;;;60.50;32.70;;;;;;;11.05;87.67;98618.50;6164069;23;20079;-80
2022/03/08 18:15:00;;;;;;;53.63;33.67;;;;;;;10.84;88.72;98619.59;6164145;23;20012;-80
2022/03/08 18:17:27;;;;;;;53.65;34.22;;;;;;;10.88;88.53;98633.09;6191863;23;20023;-79
2022/03/08 18:19:53;;;;;;;55.83;34.28;;;;;;;10.88;90.49;98625.22;6164733;23;20343;-80
2022/03/08 18:22:19;;;;;;;54.03;34.10;;;;;;;10.85;88.61;98618.59;6163638;23;20020;-80
2022/03/08 18:24:44;;;;;;;57.13;33.65;;;;;;;10.98;89.70;98630.88;6164942;23;20117;-82
2022/03/08 18:27:11;;;;;;;62.35;35.72;;;;;;;11.02;89.33;98632.06;6189797;23;20016;-82
2022/03/08 18:29:36;;;;;;;59.25;35.20;;;;;;;10.77;88.68;98629.31;6190720;23;20079;-83
2022/03/08 18:32:06;;;;;;;68.97;38.38;;;;;;;10.74;88.59;98640.22;6215788;23;19992;-82
2022/03/08 18:34:32;;;;;;;62.45;37.15;;;;;;;10.64;89.51;98641.47;6188701;23;20008;-80
2022/03/08 18:36:58;;;;;;;57.65;34.03;;;;;;;10.73;88.23;98641.22;6188750;23;20011;-81
2022/03/08 18:39:26;;;;;;;66.63;38.17;;;;;;;10.79;89.12;98658.78;6188397;23;20481;-81
2022/03/08 18:41:56;;;;;;;61.30;35.80;;;;;;;10.77;88.03;98655.56;6188795;23;20017;-81
2022/03/08 18:44:22;;;;;;;77.22;43.38;;;;;;;10.63;89.49;98629.34;6188973;23;20039;-83
2022/03/08 18:46:50;;;;;;;63.60;37.10;;;;;;;10.65;89.61;98637.00;6218261;23;20036;-82
2022/03/08 18:49:16;;;;;;;68.55;36.83;;;;;;;10.63;88.50;98628.53;6191862;23;20016;-83
2022/03/08 18:51:43;;;;;;;62.67;35.40;;;;;;;10.42;89.14;98607.59;6165922;23;20012;-81
2022/03/08 18:54:09;;;;;;;65.82;36.97;;;;;;;10.38;90.29;98627.31;6191126;23;20004;-83
2022/03/08 18:56:36;;;;;;;65.72;38.80;;;;;;;10.47;89.74;98635.03;6216849;23;20015;-83
2022/03/08 18:59:03;;;;;;;60.58;36.30;;;;;;;10.41;91.02;98637.44;6216876;23;20013;-84
2022/03/08 19:01:30;;;;;;;64.15;36.78;;;;;;;10.26;91.84;98632.38;6215361;23;20020;-83
2022/03/08 19:03:56;;;;;;;67.78;37.15;;;;;;;10.10;91.76;98644.06;6216027;23;20016;-81
2022/03/08 19:06:23;;;;;;;61.10;36.75;;;;;;;9.97;90.23;98617.84;6191177;23;20012;-84
2022/03/08 19:08:49;;;;;;;69.40;37.38;;;;;;;10.42;92.96;98641.69;6188331;23;20099;-79
2022/03/08 19:11:15;;;;;;;59.25;35.70;;;;;;;10.60;91.05;98639.44;6216069;23;20083;-82
2022/03/08 19:13:40;;;;;;;60.30;37.13;;;;;;;10.48;90.42;98649.75;6214762;23;20008;-83
2022/03/08 19:16:07;;;;;;;66.10;37.72;;;;;;;10.38;90.85;98669.28;6188524;23;20319;-83
2022/03/08 19:18:34;;;;;;;70.00;37.50;;;;;;;10.32;91.41;98666.66;6164961;23;20013;-81
2022/03/08 19:21:00;;;;;;;70.78;40.78;;;;;;;10.25;90.70;98685.03;6188304;23;20036;-81
2022/03/08 19:23:28;;;;;;;64.15;37.05;;;;;;;10.32;92.06;98682.41;6191966;23;20063;-82
2022/03/08 19:25:54;;;;;;;64.45;37.75;;;;;;;10.32;93.14;98677.97;6196528;23;20009;-81
2022/03/08 19:28:20;;;;;;;64.38;36.15;;;;;;;10.48;93.23;98681.25;6215545;23;20019;-83
2022/03/08 19:30:46;;;;;;;61.92;36.50;;;;;;;10.59;91.96;98671.94;6216316;23;20013;-83
2022/03/08 19:33:12;;;;;;;66.90;37.47;;;;;;;10.67;92.28;98682.22;6165428;23;20021;-82
2022/03/08 19:35:39;;;;;;;64.70;37.03;;;;;;;10.63;91.68;98668.72;6188772;23;20346;-82
2022/03/08 19:38:04;;;;;;;63.00;36.50;;;;;;;10.63;91.67;98671.34;6190287;23;20008;-82
2022/03/08 19:40:30;;;;;;;70.47;37.92;;;;;;;10.75;91.38;98662.84;6188560;23;20435;-82
2022/03/08 19:42:56;;;;;;;67.82;37.22;;;;;;;10.85;91.31;98663.22;6195741;23;20048;-83
2022/03/08 19:45:23;;;;;;;68.57;38.90;;;;;;;10.54;92.16;98641.88;6175018;23;20028;-84
2022/03/08 19:47:49;;;;;;;64.40;37.53;;;;;;;10.77;93.42;98660.81;6203020;23;20015;-82
2022/03/08 19:50:14;;;;;;;60.83;36.58;;;;;;;10.61;92.75;98633.19;6196673;23;20012;-83
2022/03/08 19:52:40;;;;;;;60.33;36.72;;;;;;;10.83;92.69;98665.25;6177344;23;20067;-84
2022/03/08 19:55:10;;;;;;;69.20;36.97;;;;;;;10.68;93.73;98647.91;6198001;23;20008;-83
2022/03/08 19:57:36;;;;;;;62.35;36.17;;;;;;;10.50;92.93;98645.09;6200894;23;20015;-83
2022/03/08 20:00:04;;;;;;;65.18;37.97;;;;;;;10.54;90.99;98664.69;6197415;23;20036;-83
2022/03/08 20:02:30;;;;;;;60.25;35.60;;;;;;;10.38;91.12;98631.78;6177814;23;20019;-82
2022/03/08 20:04:56;;;;;;;61.63;34.83;;;;;;;10.78;91.48;98675.53;6172312;23;20013;-83
2022/03/08 20:07:21;;;;;;;64.25;33.83;;;;;;;10.99;91.83;98706.81;6219965;23;20331;-82
2022/03/08 20:09:47;;;;;;;65.65;36.67;;;;;;;10.99;90.19;98696.31;6202030;23;20035;-83
2022/03/08 20:12:14;;;;;;;62.30;34.65;;;;;;;10.88;91.88;98696.13;6175330;23;20401;-81
2022/03/08 20:14:41;;;;;;;57.78;33.78;;;;;;;11.05;92.32;98699.13;6197700;23;20408;-82
2022/03/08 20:17:07;;;;;;;71.30;38.72;;;;;;;10.91;92.80;98675.53;6168688;23;20469;-81
2022/03/08 20:19:33;;;;;;;65.18;39.20;;;;;;;11.11;92.21;98679.91;6216155;23;20343;-82
2022/03/08 20:21:59;;;;;;;66.75;36.50;;;;;;;11.11;91.96;98682.53;6218039;23;20012;-82
2022/03/08 20:24:25;;;;;;;60.58;35.00;;;;;;;11.29;92.56;98700.25;6218635;23;20063;-82
2022/03/08 20:26:50;;;;;;;65.60;36.85;;;;;;;11.39;91.66;98699.81;6221371;23;20013;-82
2022/03/08 20:29:16;;;;;;;61.78;35.15;;;;;;;11.18;93.80;98699.09;6189757;23;20447;-82
2022/03/08 20:31:42;;;;;;;63.25;37.05;;;;;;;11.33;91.67;98698.84;6216426;23;20016;-82
2022/03/08 20:34:08;;;;;;;64.60;39.13;;;;;;;11.38;90.74;98695.59;6164814;23;20443;-82
2022/03/08 20:36:34;;;;;;;66.05;39.38;;;;;;;11.42;90.94;98705.47;6189529;23;20039;-81
2022/03/08 20:39:01;;;;;;;67.57;35.55;;;;;;;11.17;94.09;98707.97;6189838;23;20019;-81
2022/03/08 20:41:28;;;;;;;61.00;35.70;;;;;;;11.18;92.63;98709.59;6188024;23;20013;-81
2022/03/08 20:43:53;;;;;;;56.78;34.00;;;;;;;11.09;92.96;98705.59;6189010;23;20454;-80
2022/03/08 20:46:19;;;;;;;60.17;34.15;;;;;;;11.05;95.49;98693.88;6215329;23;20017;-81
2022/03/08 20:48:44;;;;;;;68.25;35.88;;;;;;;11.14;92.65;98718.91;6162043;23;20092;-79
2022/03/08 20:51:10;;;;;;;60.40;33.40;;;;;;;11.11;93.49;98708.81;6188530;23;20013;-79
2022/03/08 20:53:36;;;;;;;51.80;32.38;;;;;;;11.18;92.82;98720.09;6188130;23;20012;-79
2022/03/08 20:56:02;;;;;;;53.20;32.90;;;;;;;11.13;93.08;98712.03;6162282;23;20023;-80
2022/03/08 20:58:28;;;;;;;56.55;33.28;;;;;;;10.96;93.51;98709.06;6189033;23;20064;-80
2022/03/08 21:00:58;;;;;;;54.70;33.28;;;;;;;10.77;94.53;98703.63;6164019;23;20048;-79
2022/03/08 21:03:28;;;;;;;57.63;32.80;;;;;;;10.91;95.95;98714.91;6218726;23;20019;-79
2022/03/08 21:05:54;;;;;;;50.50;31.92;;;;;;;10.96;95.07;98738.72;6189785;23;20111;-79
2022/03/08 21:08:35;;;;;;;57.95;33.20;;;;;;;10.86;94.40;98727.84;6189151;23;20012;-78
2022/03/08 21:11:04;;;;;;;55.28;31.13;;;;;;;10.52;93.82;98685.06;6220286;23;20005;-83
2022/03/08 21:13:33;;;;;;;52.50;31.52;;;;;;;10.52;94.67;98690.31;6198286;23;20020;-82
2022/03/08 21:15:59;;;;;;;57.50;32.42;;;;;;;10.51;94.53;98691.31;6226209;23;20013;-81
2022/03/08 21:18:25;;;;;;;55.88;30.33;;;;;;;10.70;94.29;98723.81;6193937;23;20379;-82
2022/03/08 21:20:51;;;;;;;53.25;32.00;;;;;;;10.71;94.72;98735.94;6193384;23;20016;-82
2022/03/08 21:23:17;;;;;;;51.47;31.92;;;;;;;10.56;96.42;98713.34;6165255;23;20020;-81
2022/03/08 21:25:42;;;;;;;58.35;33.15;;;;;;;10.41;94.64;98716.13;6216449;23;20012;-82
2022/03/08 21:28:08;;;;;;;57.92;33.60;;;;;;;10.54;94.59;98728.47;6215847;23;20061;-82
2022/03/08 21:30:34;;;;;;;56.35;32.05;;;;;;;10.70;95.55;98727.25;6189228;23;20009;-83
2022/03/08 21:33:00;;;;;;;57.08;32.78;;;;;;;10.75;94.03;98741.59;6215956;23;20012;-83
2022/03/08 21:35:25;;;;;;;52.47;30.75;;;;;;;10.79;94.37;98742.78;6215122;23;20008;-82
2022/03/08 21:37:52;;;;;;;54.78;31.77;;;;;;;10.95;93.05;98742.38;6189056;23;20019;-82
2022/03/08 21:40:18;;;;;;;57.17;30.58;;;;;;;11.09;94.47;98751.03;6214436;23;20312;-83
2022/03/08 21:42:44;;;;;;;53.20;29.77;;;;;;;11.14;93.94;98740.75;6215246;23;20023;-82
2022/03/08 21:45:10;;;;;;;52.22;31.10;;;;;;;11.31;93.55;98739.47;6215184;23;20015;-82
2022/03/08 21:47:36;;;;;;;48.63;30.27;;;;;;;11.18;94.35;98732.44;6164094;23;20023;-81
2022/03/08 21:50:03;;;;;;;53.95;30.95;;;;;;;11.29;93.66;98743.13;6191046;23;20008;-83
2022/03/08 21:52:29;;;;;;;49.75;28.05;;;;;;;11.55;94.91;98738.00;6189749;23;20020;-84
2022/03/08 21:54:54;;;;;;;50.20;30.08;;;;;;;11.66;92.56;98741.78;6215350;23;20013;-83
2022/03/08 21:57:20;;;;;;;54.28;31.67;;;;;;;11.56;93.13;98753.53;6189246;23;20012;-83
2022/03/08 21:59:46;;;;;;;58.28;31.42;;;;;;;11.52;92.94;98747.09;6188752;23;20347;-82
2022/03/08 22:02:12;;;;;;;51.63;31.17;;;;;;;11.44;94.58;98736.81;6188837;23;20008;-82
2022/03/08 22:04:40;;;;;;;50.15;29.67;;;;;;;11.62;94.54;98725.63;6215584;23;20012;-83
2022/03/08 22:07:06;;;;;;;53.38;32.33;;;;;;;11.46;93.38;98716.38;6189089;23;20040;-83
2022/03/08 22:09:32;;;;;;;48.63;30.40;;;;;;;11.20;94.53;98717.28;6187846;23;20043;-83